Portada
METAR-TAF:

METAR-TAF

Aeroports :

Escanaba, Michigan, Estats Units d'Amèrica

Delta County Airport

latitud: 45-45N, longitud: 087-02W, altitud: 180 m

Observació

L'informe es va fer fa 33 minuts, a les 01:26 UTC
Vent 8 kt del Sud
Temperatura 0°C
Humitat 86%
Pressió 1012 hPa
Visibilitat: 16.1 km
Núvols disperses a una alçada de 2100 ft
Cel cobert a una alçada de 10000 ft

METAR: KESC 190126Z AUTO 19008KT 10SM SCT021 OVC100 00/M02 A2988 RMK AO2 FZRANO

Hora: 20:59 (01:59 UTC)


TAF: manca

Observacions i pronòstics meteorològics de més de 4000 aeroports (METAR i TAF).

Les estacions disponibles són els punts grocs i vermells al mapa.

Posi el ratolí al punt desitjat per veure el nom de l'estació.

Feu clic per veure les observacions i els pronòstics meteorològics.

Per canviar el mapa: feu clic els botons verds amb una creu de color negre per apropar; al botó verd amb un guió per allunyar la imatge; o en les fletxes verdes per a mapes adjacents.


METAR-TAF: